sensor_id;sensor_type;location;lat;lon;timestamp;temperature;humidity
7844;DHT22;3967;48.702;9.326;2022-10-16T00:00:55;17.40;99.90
7844;DHT22;3967;48.702;9.326;2022-10-16T00:03:22;17.30;99.90
7844;DHT22;3967;48.702;9.326;2022-10-16T00:05:59;17.30;99.90
7844;DHT22;3967;48.702;9.326;2022-10-16T00:08:26;17.20;99.90
7844;DHT22;3967;48.702;9.326;2022-10-16T00:10:59;17.30;99.90
7844;DHT22;3967;48.702;9.326;2022-10-16T00:13:25;17.30;99.90
7844;DHT22;3967;48.702;9.326;2022-10-16T00:15:55;17.30;99.90
7844;DHT22;3967;48.702;9.326;2022-10-16T00:18:22;17.30;99.90
7844;DHT22;3967;48.702;9.326;2022-10-16T00:20:49;17.30;99.90
7844;DHT22;3967;48.702;9.326;2022-10-16T00:23:16;17.40;99.90
7844;DHT22;3967;48.702;9.326;2022-10-16T00:25:42;17.40;99.90
7844;DHT22;3967;48.702;9.326;2022-10-16T00:28:09;17.40;99.90
7844;DHT22;3967;48.702;9.326;2022-10-16T00:30:39;17.40;99.90
7844;DHT22;3967;48.702;9.326;2022-10-16T00:33:06;17.40;99.90
7844;DHT22;3967;48.702;9.326;2022-10-16T00:35:33;17.40;99.90
7844;DHT22;3967;48.702;9.326;2022-10-16T00:37:59;17.30;99.90
7844;DHT22;3967;48.702;9.326;2022-10-16T00:40:26;17.30;99.90
7844;DHT22;3967;48.702;9.326;2022-10-16T00:42:54;17.30;99.90
7844;DHT22;3967;48.702;9.326;2022-10-16T00:45:21;17.20;99.90
7844;DHT22;3967;48.702;9.326;2022-10-16T00:47:49;17.20;99.90
7844;DHT22;3967;48.702;9.326;2022-10-16T00:50:28;17.10;99.90
7844;DHT22;3967;48.702;9.326;2022-10-16T00:52:56;17.10;99.90
7844;DHT22;3967;48.702;9.326;2022-10-16T00:55:23;17.10;99.90
7844;DHT22;3967;48.702;9.326;2022-10-16T00:57:51;17.10;99.90
7844;DHT22;3967;48.702;9.326;2022-10-16T01:00:21;17.10;99.90
7844;DHT22;3967;48.702;9.326;2022-10-16T01:02:57;17.00;99.90
7844;DHT22;3967;48.702;9.326;2022-10-16T01:05:39;17.00;99.90
7844;DHT22;3967;48.702;9.326;2022-10-16T01:08:14;17.00;99.90
7844;DHT22;3967;48.702;9.326;2022-10-16T01:10:57;16.90;99.90
7844;DHT22;3967;48.702;9.326;2022-10-16T01:13:38;16.90;99.90
7844;DHT22;3967;48.702;9.326;2022-10-16T01:16:15;16.90;99.90
7844;DHT22;3967;48.702;9.326;2022-10-16T01:18:54;16.90;99.90
7844;DHT22;3967;48.702;9.326;2022-10-16T01:21:29;16.90;99.90
7844;DHT22;3967;48.702;9.326;2022-10-16T01:30:02;16.90;99.90
7844;DHT22;3967;48.702;9.326;2022-10-16T01:35:14;16.90;99.90
7844;DHT22;3967;48.702;9.326;2022-10-16T01:40:45;16.70;99.90
7844;DHT22;3967;48.702;9.326;2022-10-16T01:43:15;16.70;99.90
7844;DHT22;3967;48.702;9.326;2022-10-16T01:45:44;16.70;99.90
7844;DHT22;3967;48.702;9.326;2022-10-16T01:48:14;16.70;99.90
7844;DHT22;3967;48.702;9.326;2022-10-16T01:50:44;16.70;99.90
7844;DHT22;3967;48.702;9.326;2022-10-16T01:53:12;16.70;99.90
7844;DHT22;3967;48.702;9.326;2022-10-16T01:55:43;16.70;99.90
7844;DHT22;3967;48.702;9.326;2022-10-16T01:58:13;16.70;99.90
7844;DHT22;3967;48.702;9.326;2022-10-16T02:00:43;16.70;99.90
7844;DHT22;3967;48.702;9.326;2022-10-16T02:03:12;16.70;99.90
7844;DHT22;3967;48.702;9.326;2022-10-16T02:05:50;16.70;99.90
7844;DHT22;3967;48.702;9.326;2022-10-16T02:08:18;16.60;99.90
7844;DHT22;3967;48.702;9.326;2022-10-16T02:10:45;16.60;99.90
7844;DHT22;3967;48.702;9.326;2022-10-16T02:13:17;16.60;99.90
7844;DHT22;3967;48.702;9.326;2022-10-16T02:15:43;16.60;99.90
7844;DHT22;3967;48.702;9.326;2022-10-16T02:18:10;16.60;99.90
7844;DHT22;3967;48.702;9.326;2022-10-16T02:20:53;16.60;99.90
7844;DHT22;3967;48.702;9.326;2022-10-16T02:23:35;16.60;99.90
7844;DHT22;3967;48.702;9.326;2022-10-16T02:26:05;16.60;99.90
7844;DHT22;3967;48.702;9.326;2022-10-16T02:28:46;16.60;99.90
7844;DHT22;3967;48.702;9.326;2022-10-16T02:31:18;16.60;99.90
7844;DHT22;3967;48.702;9.326;2022-10-16T02:33:48;16.60;99.90
7844;DHT22;3967;48.702;9.326;2022-10-16T02:36:16;16.70;99.90
7844;DHT22;3967;48.702;9.326;2022-10-16T02:38:43;16.70;99.90
7844;DHT22;3967;48.702;9.326;2022-10-16T02:41:10;16.60;99.90
7844;DHT22;3967;48.702;9.326;2022-10-16T02:43:37;16.50;99.90
7844;DHT22;3967;48.702;9.326;2022-10-16T02:46:03;16.50;99.90
7844;DHT22;3967;48.702;9.326;2022-10-16T02:48:30;16.40;99.90
7844;DHT22;3967;48.702;9.326;2022-10-16T02:50:56;16.30;99.90
7844;DHT22;3967;48.702;9.326;2022-10-16T02:53:23;16.20;99.90
7844;DHT22;3967;48.702;9.326;2022-10-16T02:55:50;16.20;99.90
7844;DHT22;3967;48.702;9.326;2022-10-16T02:58:16;16.30;99.90
7844;DHT22;3967;48.702;9.326;2022-10-16T03:00:43;16.30;99.90
7844;DHT22;3967;48.702;9.326;2022-10-16T03:03:10;16.40;99.90
7844;DHT22;3967;48.702;9.326;2022-10-16T03:05:36;16.40;99.90
7844;DHT22;3967;48.702;9.326;2022-10-16T03:08:03;16.40;99.90
7844;DHT22;3967;48.702;9.326;2022-10-16T03:10:30;16.40;99.90
7844;DHT22;3967;48.702;9.326;2022-10-16T03:12:56;16.40;99.90
7844;DHT22;3967;48.702;9.326;2022-10-16T03:15:23;16.40;99.90
7844;DHT22;3967;48.702;9.326;2022-10-16T03:17:49;16.40;99.90
7844;DHT22;3967;48.702;9.326;2022-10-16T03:20:16;16.40;99.90
7844;DHT22;3967;48.702;9.326;2022-10-16T03:22:43;16.40;99.90
7844;DHT22;3967;48.702;9.326;2022-10-16T03:25:10;16.40;99.90
7844;DHT22;3967;48.702;9.326;2022-10-16T03:27:36;16.40;99.90
7844;DHT22;3967;48.702;9.326;2022-10-16T03:30:03;16.30;99.90
7844;DHT22;3967;48.702;9.326;2022-10-16T03:32:30;16.30;99.90
7844;DHT22;3967;48.702;9.326;2022-10-16T03:34:57;16.40;99.90
7844;DHT22;3967;48.702;9.326;2022-10-16T03:37:24;16.40;99.90
7844;DHT22;3967;48.702;9.326;2022-10-16T03:39:51;16.40;99.90
7844;DHT22;3967;48.702;9.326;2022-10-16T03:42:18;16.40;99.90
7844;DHT22;3967;48.702;9.326;2022-10-16T03:44:45;16.40;99.90
7844;DHT22;3967;48.702;9.326;2022-10-16T03:47:11;16.30;99.90
7844;DHT22;3967;48.702;9.326;2022-10-16T03:49:38;16.30;99.90
7844;DHT22;3967;48.702;9.326;2022-10-16T03:52:04;16.30;99.90
7844;DHT22;3967;48.702;9.326;2022-10-16T03:54:31;16.30;99.90
7844;DHT22;3967;48.702;9.326;2022-10-16T03:56:58;16.30;99.90
7844;DHT22;3967;48.702;9.326;2022-10-16T03:59:24;16.30;99.90
7844;DHT22;3967;48.702;9.326;2022-10-16T04:01:51;16.30;99.90
7844;DHT22;3967;48.702;9.326;2022-10-16T04:04:18;16.30;99.90
7844;DHT22;3967;48.702;9.326;2022-10-16T04:06:44;16.30;99.90
7844;DHT22;3967;48.702;9.326;2022-10-16T04:09:11;16.30;99.90
7844;DHT22;3967;48.702;9.326;2022-10-16T04:11:37;16.30;99.90
7844;DHT22;3967;48.702;9.326;2022-10-16T04:14:05;16.20;99.90
7844;DHT22;3967;48.702;9.326;2022-10-16T04:16:31;16.20;99.90
7844;DHT22;3967;48.702;9.326;2022-10-16T04:18:58;16.20;99.90
7844;DHT22;3967;48.702;9.326;2022-10-16T04:21:25;16.20;99.90
7844;DHT22;3967;48.702;9.326;2022-10-16T04:23:51;16.10;99.90
7844;DHT22;3967;48.702;9.326;2022-10-16T04:26:18;16.10;99.90
7844;DHT22;3967;48.702;9.326;2022-10-16T04:28:44;16.20;99.90
7844;DHT22;3967;48.702;9.326;2022-10-16T04:31:11;16.20;99.90
7844;DHT22;3967;48.702;9.326;2022-10-16T04:33:38;16.20;99.90
7844;DHT22;3967;48.702;9.326;2022-10-16T04:36:05;16.10;99.90
7844;DHT22;3967;48.702;9.326;2022-10-16T04:38:31;16.10;99.90
7844;DHT22;3967;48.702;9.326;2022-10-16T04:40:58;16.10;99.90
7844;DHT22;3967;48.702;9.326;2022-10-16T04:43:26;16.10;99.90
7844;DHT22;3967;48.702;9.326;2022-10-16T04:45:52;16.10;99.90
7844;DHT22;3967;48.702;9.326;2022-10-16T04:48:21;16.00;99.90
7844;DHT22;3967;48.702;9.326;2022-10-16T04:50:47;16.00;99.90
7844;DHT22;3967;48.702;9.326;2022-10-16T04:53:20;16.00;99.90
7844;DHT22;3967;48.702;9.326;2022-10-16T04:55:47;16.10;99.90
7844;DHT22;3967;48.702;9.326;2022-10-16T04:58:13;16.00;99.90
7844;DHT22;3967;48.702;9.326;2022-10-16T05:00:40;16.10;99.90
7844;DHT22;3967;48.702;9.326;2022-10-16T05:03:07;16.10;99.90
7844;DHT22;3967;48.702;9.326;2022-10-16T05:05:36;16.10;99.90
7844;DHT22;3967;48.702;9.326;2022-10-16T05:08:03;16.10;99.90
7844;DHT22;3967;48.702;9.326;2022-10-16T05:10:30;16.10;99.90
7844;DHT22;3967;48.702;9.326;2022-10-16T05:12:57;16.10;99.90
7844;DHT22;3967;48.702;9.326;2022-10-16T05:15:23;16.10;99.90
7844;DHT22;3967;48.702;9.326;2022-10-16T05:17:54;16.10;99.90
7844;DHT22;3967;48.702;9.326;2022-10-16T05:20:22;16.10;99.90
7844;DHT22;3967;48.702;9.326;2022-10-16T05:22:49;16.10;99.90
7844;DHT22;3967;48.702;9.326;2022-10-16T05:25:16;16.10;99.90
7844;DHT22;3967;48.702;9.326;2022-10-16T05:27:42;16.10;99.90
7844;DHT22;3967;48.702;9.326;2022-10-16T05:30:09;16.00;99.90
7844;DHT22;3967;48.702;9.326;2022-10-16T05:32:38;16.00;99.90
7844;DHT22;3967;48.702;9.326;2022-10-16T05:35:05;16.00;99.90
7844;DHT22;3967;48.702;9.326;2022-10-16T05:37:37;16.00;99.90
7844;DHT22;3967;48.702;9.326;2022-10-16T05:40:04;15.90;99.90
7844;DHT22;3967;48.702;9.326;2022-10-16T05:42:31;15.90;99.90
7844;DHT22;3967;48.702;9.326;2022-10-16T05:44:57;15.80;99.90
7844;DHT22;3967;48.702;9.326;2022-10-16T05:47:24;15.90;99.90
7844;DHT22;3967;48.702;9.326;2022-10-16T05:49:51;15.90;99.90
7844;DHT22;3967;48.702;9.326;2022-10-16T05:52:18;15.90;99.90
7844;DHT22;3967;48.702;9.326;2022-10-16T05:54:44;15.90;99.90
7844;DHT22;3967;48.702;9.326;2022-10-16T05:57:11;15.90;99.90
7844;DHT22;3967;48.702;9.326;2022-10-16T05:59:38;15.80;99.90
7844;DHT22;3967;48.702;9.326;2022-10-16T06:02:05;15.90;99.90
7844;DHT22;3967;48.702;9.326;2022-10-16T06:04:31;15.90;99.90
7844;DHT22;3967;48.702;9.326;2022-10-16T06:06:59;15.90;99.90
7844;DHT22;3967;48.702;9.326;2022-10-16T06:09:27;15.80;99.90
7844;DHT22;3967;48.702;9.326;2022-10-16T06:11:53;15.80;99.90
7844;DHT22;3967;48.702;9.326;2022-10-16T06:14:20;15.80;99.90
7844;DHT22;3967;48.702;9.326;2022-10-16T06:16:47;15.90;99.90
7844;DHT22;3967;48.702;9.326;2022-10-16T06:19:13;15.90;99.90
7844;DHT22;3967;48.702;9.326;2022-10-16T06:21:42;15.90;99.90
7844;DHT22;3967;48.702;9.326;2022-10-16T06:24:09;15.90;99.90
7844;DHT22;3967;48.702;9.326;2022-10-16T06:26:37;15.90;99.90
7844;DHT22;3967;48.702;9.326;2022-10-16T06:29:04;15.90;99.90
7844;DHT22;3967;48.702;9.326;2022-10-16T06:31:31;15.90;99.90
7844;DHT22;3967;48.702;9.326;2022-10-16T06:33:59;15.90;99.90
7844;DHT22;3967;48.702;9.326;2022-10-16T06:36:27;15.90;99.90
7844;DHT22;3967;48.702;9.326;2022-10-16T06:38:53;15.90;99.90
7844;DHT22;3967;48.702;9.326;2022-10-16T06:41:21;15.90;99.90
7844;DHT22;3967;48.702;9.326;2022-10-16T06:43:48;15.90;99.90
7844;DHT22;3967;48.702;9.326;2022-10-16T06:46:17;15.90;99.90
7844;DHT22;3967;48.702;9.326;2022-10-16T06:48:44;15.80;99.90
7844;DHT22;3967;48.702;9.326;2022-10-16T06:51:17;15.80;99.90
7844;DHT22;3967;48.702;9.326;2022-10-16T06:53:48;15.90;99.90
7844;DHT22;3967;48.702;9.326;2022-10-16T06:56:32;15.90;99.90
7844;DHT22;3967;48.702;9.326;2022-10-16T06:58:59;16.00;99.90
7844;DHT22;3967;48.702;9.326;2022-10-16T07:01:26;16.10;99.90
7844;DHT22;3967;48.702;9.326;2022-10-16T07:03:53;16.10;99.90
7844;DHT22;3967;48.702;9.326;2022-10-16T07:06:22;16.10;99.90
7844;DHT22;3967;48.702;9.326;2022-10-16T07:08:49;16.10;99.90
7844;DHT22;3967;48.702;9.326;2022-10-16T07:11:21;16.10;99.90
7844;DHT22;3967;48.702;9.326;2022-10-16T07:13:49;16.20;99.90
7844;DHT22;3967;48.702;9.326;2022-10-16T07:16:28;16.20;99.90
7844;DHT22;3967;48.702;9.326;2022-10-16T07:18:59;16.20;99.90
7844;DHT22;3967;48.702;9.326;2022-10-16T07:21:32;16.20;99.90
7844;DHT22;3967;48.702;9.326;2022-10-16T07:24:03;16.30;99.90
7844;DHT22;3967;48.702;9.326;2022-10-16T07:26:33;16.20;99.90
7844;DHT22;3967;48.702;9.326;2022-10-16T07:29:00;16.20;99.90
7844;DHT22;3967;48.702;9.326;2022-10-16T07:31:27;16.20;99.90
7844;DHT22;3967;48.702;9.326;2022-10-16T07:33:55;16.20;99.90
7844;DHT22;3967;48.702;9.326;2022-10-16T07:36:21;16.30;99.90
7844;DHT22;3967;48.702;9.326;2022-10-16T07:38:48;16.40;99.90
7844;DHT22;3967;48.702;9.326;2022-10-16T07:41:19;16.50;99.90
7844;DHT22;3967;48.702;9.326;2022-10-16T07:43:51;16.50;99.90
7844;DHT22;3967;48.702;9.326;2022-10-16T07:46:19;16.50;99.90
7844;DHT22;3967;48.702;9.326;2022-10-16T07:48:47;16.60;99.90
7844;DHT22;3967;48.702;9.326;2022-10-16T07:51:16;16.60;99.90
7844;DHT22;3967;48.702;9.326;2022-10-16T07:53:43;16.50;99.90
7844;DHT22;3967;48.702;9.326;2022-10-16T07:56:10;16.50;99.90
7844;DHT22;3967;48.702;9.326;2022-10-16T07:58:38;16.50;99.90
7844;DHT22;3967;48.702;9.326;2022-10-16T08:01:08;16.50;99.90
7844;DHT22;3967;48.702;9.326;2022-10-16T08:03:35;16.50;99.90
7844;DHT22;3967;48.702;9.326;2022-10-16T08:06:02;16.60;99.90
7844;DHT22;3967;48.702;9.326;2022-10-16T08:08:29;16.60;99.90
7844;DHT22;3967;48.702;9.326;2022-10-16T08:10:56;16.60;99.90
7844;DHT22;3967;48.702;9.326;2022-10-16T08:13:23;16.60;99.90
7844;DHT22;3967;48.702;9.326;2022-10-16T08:15:50;16.70;99.90
7844;DHT22;3967;48.702;9.326;2022-10-16T08:18:17;16.80;99.90
7844;DHT22;3967;48.702;9.326;2022-10-16T08:20:43;16.80;99.90
7844;DHT22;3967;48.702;9.326;2022-10-16T08:23:13;16.80;99.90
7844;DHT22;3967;48.702;9.326;2022-10-16T08:25:40;16.70;99.90
7844;DHT22;3967;48.702;9.326;2022-10-16T08:28:09;16.80;99.90
7844;DHT22;3967;48.702;9.326;2022-10-16T08:30:37;16.70;99.90
7844;DHT22;3967;48.702;9.326;2022-10-16T08:33:04;16.80;99.90
7844;DHT22;3967;48.702;9.326;2022-10-16T08:35:33;16.90;99.90
7844;DHT22;3967;48.702;9.326;2022-10-16T08:37:59;16.90;99.90
7844;DHT22;3967;48.702;9.326;2022-10-16T08:40:28;17.00;99.90
7844;DHT22;3967;48.702;9.326;2022-10-16T08:43:24;17.00;99.90
7844;DHT22;3967;48.702;9.326;2022-10-16T08:48:50;17.20;99.90
7844;DHT22;3967;48.702;9.326;2022-10-16T08:51:26;17.20;99.90
7844;DHT22;3967;48.702;9.326;2022-10-16T08:56:23;17.40;99.90
7844;DHT22;3967;48.702;9.326;2022-10-16T08:58:52;17.50;99.90
7844;DHT22;3967;48.702;9.326;2022-10-16T09:01:44;17.60;99.90
7844;DHT22;3967;48.702;9.326;2022-10-16T09:10:19;17.50;99.90
7844;DHT22;3967;48.702;9.326;2022-10-16T09:15:41;17.70;99.90
7844;DHT22;3967;48.702;9.326;2022-10-16T09:18:32;17.80;99.90
7844;DHT22;3967;48.702;9.326;2022-10-16T09:21:26;17.90;99.90
7844;DHT22;3967;48.702;9.326;2022-10-16T09:23:59;17.90;99.90
7844;DHT22;3967;48.702;9.326;2022-10-16T09:26:26;17.90;99.90
7844;DHT22;3967;48.702;9.326;2022-10-16T09:28:53;18.00;99.90
7844;DHT22;3967;48.702;9.326;2022-10-16T09:31:22;18.00;99.90
7844;DHT22;3967;48.702;9.326;2022-10-16T09:36:46;18.00;99.90
7844;DHT22;3967;48.702;9.326;2022-10-16T09:39:13;18.10;99.90
7844;DHT22;3967;48.702;9.326;2022-10-16T09:41:43;18.10;99.90
7844;DHT22;3967;48.702;9.326;2022-10-16T09:44:30;18.20;99.90
7844;DHT22;3967;48.702;9.326;2022-10-16T09:47:21;18.30;99.90
7844;DHT22;3967;48.702;9.326;2022-10-16T09:52:19;18.60;99.90
7844;DHT22;3967;48.702;9.326;2022-10-16T09:54:53;18.80;99.90
7844;DHT22;3967;48.702;9.326;2022-10-16T09:57:21;19.00;99.90
7844;DHT22;3967;48.702;9.326;2022-10-16T09:59:55;19.10;99.90
7844;DHT22;3967;48.702;9.326;2022-10-16T10:02:43;19.10;99.90
7844;DHT22;3967;48.702;9.326;2022-10-16T10:05:24;19.10;99.90
7844;DHT22;3967;48.702;9.326;2022-10-16T10:08:04;19.10;99.90
7844;DHT22;3967;48.702;9.326;2022-10-16T10:10:41;19.00;99.90
7844;DHT22;3967;48.702;9.326;2022-10-16T10:13:22;19.20;99.90
7844;DHT22;3967;48.702;9.326;2022-10-16T10:15:51;19.30;99.90
7844;DHT22;3967;48.702;9.326;2022-10-16T10:18:20;19.50;99.90
7844;DHT22;3967;48.702;9.326;2022-10-16T10:20:59;19.60;99.90
7844;DHT22;3967;48.702;9.326;2022-10-16T10:23:28;19.80;99.90
7844;DHT22;3967;48.702;9.326;2022-10-16T10:26:18;19.90;99.90
7844;DHT22;3967;48.702;9.326;2022-10-16T10:29:08;20.00;99.90
7844;DHT22;3967;48.702;9.326;2022-10-16T10:42:48;20.40;99.90
7844;DHT22;3967;48.702;9.326;2022-10-16T10:48:17;20.80;99.90
7844;DHT22;3967;48.702;9.326;2022-10-16T10:50:54;20.90;99.90
7844;DHT22;3967;48.702;9.326;2022-10-16T10:56:23;21.40;98.80
7844;DHT22;3967;48.702;9.326;2022-10-16T11:07:17;21.60;95.80
7844;DHT22;3967;48.702;9.326;2022-10-16T11:09:50;21.60;95.20
7844;DHT22;3967;48.702;9.326;2022-10-16T11:12:31;21.70;91.60
7844;DHT22;3967;48.702;9.326;2022-10-16T11:15:07;21.80;91.40
7844;DHT22;3967;48.702;9.326;2022-10-16T11:18:05;21.90;91.60
7844;DHT22;3967;48.702;9.326;2022-10-16T11:20:37;22.10;93.60
7844;DHT22;3967;48.702;9.326;2022-10-16T11:26:16;22.10;90.40
7844;DHT22;3967;48.702;9.326;2022-10-16T11:28:52;22.20;91.20
7844;DHT22;3967;48.702;9.326;2022-10-16T11:31:34;22.30;89.90
7844;DHT22;3967;48.702;9.326;2022-10-16T11:37:09;22.50;93.00
7844;DHT22;3967;48.702;9.326;2022-10-16T11:39:34;22.50;92.70
7844;DHT22;3967;48.702;9.326;2022-10-16T11:42:20;22.50;92.40
7844;DHT22;3967;48.702;9.326;2022-10-16T11:44:55;22.50;91.70
7844;DHT22;3967;48.702;9.326;2022-10-16T11:47:54;22.50;92.60
7844;DHT22;3967;48.702;9.326;2022-10-16T11:50:46;22.60;89.10
7844;DHT22;3967;48.702;9.326;2022-10-16T11:55:45;22.80;87.90
7844;DHT22;3967;48.702;9.326;2022-10-16T12:01:33;22.80;88.50
7844;DHT22;3967;48.702;9.326;2022-10-16T12:04:41;22.70;87.10
7844;DHT22;3967;48.702;9.326;2022-10-16T12:07:14;22.70;87.30
7844;DHT22;3967;48.702;9.326;2022-10-16T12:09:43;22.70;87.30
7844;DHT22;3967;48.702;9.326;2022-10-16T12:15:03;22.60;86.90
7844;DHT22;3967;48.702;9.326;2022-10-16T12:17:47;22.80;87.90
7844;DHT22;3967;48.702;9.326;2022-10-16T12:30:31;22.80;86.80
7844;DHT22;3967;48.702;9.326;2022-10-16T12:33:05;22.80;86.80
7844;DHT22;3967;48.702;9.326;2022-10-16T12:35:43;22.80;87.40
7844;DHT22;3967;48.702;9.326;2022-10-16T12:41:01;22.80;86.90
7844;DHT22;3967;48.702;9.326;2022-10-16T12:48:36;22.90;87.60
7844;DHT22;3967;48.702;9.326;2022-10-16T13:18:39;23.30;87.90
7844;DHT22;3967;48.702;9.326;2022-10-16T13:26:37;23.40;82.90
7844;DHT22;3967;48.702;9.326;2022-10-16T13:29:07;23.50;82.50
7844;DHT22;3967;48.702;9.326;2022-10-16T13:31:38;23.30;82.80
7844;DHT22;3967;48.702;9.326;2022-10-16T13:34:05;23.30;83.10
7844;DHT22;3967;48.702;9.326;2022-10-16T13:39:16;23.30;81.90
7844;DHT22;3967;48.702;9.326;2022-10-16T13:44:55;23.30;84.20
7844;DHT22;3967;48.702;9.326;2022-10-16T13:47:28;23.10;82.40
7844;DHT22;3967;48.702;9.326;2022-10-16T13:50:11;23.10;80.50
7844;DHT22;3967;48.702;9.326;2022-10-16T13:52:38;23.30;79.00
7844;DHT22;3967;48.702;9.326;2022-10-16T13:55:12;23.40;81.10
7844;DHT22;3967;48.702;9.326;2022-10-16T13:57:39;23.30;80.90
7844;DHT22;3967;48.702;9.326;2022-10-16T14:00:19;23.30;80.90
7844;DHT22;3967;48.702;9.326;2022-10-16T14:02:51;23.10;82.10
7844;DHT22;3967;48.702;9.326;2022-10-16T14:05:19;22.90;82.40
7844;DHT22;3967;48.702;9.326;2022-10-16T14:07:49;23.10;82.30
7844;DHT22;3967;48.702;9.326;2022-10-16T14:10:29;23.30;82.00
7844;DHT22;3967;48.702;9.326;2022-10-16T14:13:02;23.40;83.00
7844;DHT22;3967;48.702;9.326;2022-10-16T14:15:30;23.50;84.00
7844;DHT22;3967;48.702;9.326;2022-10-16T14:17:59;23.50;84.00
7844;DHT22;3967;48.702;9.326;2022-10-16T14:20:31;23.50;83.60
7844;DHT22;3967;48.702;9.326;2022-10-16T14:25:45;23.30;83.20
7844;DHT22;3967;48.702;9.326;2022-10-16T14:30:50;23.40;85.80
7844;DHT22;3967;48.702;9.326;2022-10-16T14:33:23;23.50;85.00
7844;DHT22;3967;48.702;9.326;2022-10-16T14:38:39;23.60;82.20
7844;DHT22;3967;48.702;9.326;2022-10-16T14:41:06;23.60;83.50
7844;DHT22;3967;48.702;9.326;2022-10-16T14:43:38;23.70;82.60
7844;DHT22;3967;48.702;9.326;2022-10-16T14:46:13;23.60;81.50
7844;DHT22;3967;48.702;9.326;2022-10-16T14:48:46;23.60;82.10
7844;DHT22;3967;48.702;9.326;2022-10-16T14:51:18;23.60;82.70
7844;DHT22;3967;48.702;9.326;2022-10-16T14:53:46;23.60;83.10
7844;DHT22;3967;48.702;9.326;2022-10-16T14:56:21;23.70;82.40
7844;DHT22;3967;48.702;9.326;2022-10-16T14:58:50;23.70;82.10
7844;DHT22;3967;48.702;9.326;2022-10-16T15:01:18;23.70;81.40
7844;DHT22;3967;48.702;9.326;2022-10-16T15:03:45;23.70;82.00
7844;DHT22;3967;48.702;9.326;2022-10-16T15:06:15;23.70;81.90
7844;DHT22;3967;48.702;9.326;2022-10-16T15:08:42;23.70;81.70
7844;DHT22;3967;48.702;9.326;2022-10-16T15:11:18;23.70;82.60
7844;DHT22;3967;48.702;9.326;2022-10-16T15:13:46;23.60;82.60
7844;DHT22;3967;48.702;9.326;2022-10-16T15:16:16;23.60;83.00
7844;DHT22;3967;48.702;9.326;2022-10-16T15:18:43;23.60;82.10
7844;DHT22;3967;48.702;9.326;2022-10-16T15:21:27;23.60;83.30
7844;DHT22;3967;48.702;9.326;2022-10-16T15:23:54;23.60;85.30
7844;DHT22;3967;48.702;9.326;2022-10-16T15:26:27;23.50;87.40
7844;DHT22;3967;48.702;9.326;2022-10-16T15:28:54;23.30;88.30
7844;DHT22;3967;48.702;9.326;2022-10-16T15:31:21;23.10;85.40
7844;DHT22;3967;48.702;9.326;2022-10-16T15:33:53;23.00;84.50
7844;DHT22;3967;48.702;9.326;2022-10-16T15:36:30;23.10;85.00
7844;DHT22;3967;48.702;9.326;2022-10-16T15:38:57;23.20;85.50
7844;DHT22;3967;48.702;9.326;2022-10-16T15:41:24;23.30;85.60
7844;DHT22;3967;48.702;9.326;2022-10-16T15:43:51;23.20;85.50
7844;DHT22;3967;48.702;9.326;2022-10-16T15:46:20;23.20;85.90
7844;DHT22;3967;48.702;9.326;2022-10-16T15:48:48;23.10;86.20
7844;DHT22;3967;48.702;9.326;2022-10-16T15:51:16;23.00;86.50
7844;DHT22;3967;48.702;9.326;2022-10-16T15:53:43;23.00;87.00
7844;DHT22;3967;48.702;9.326;2022-10-16T15:56:13;22.80;87.30
7844;DHT22;3967;48.702;9.326;2022-10-16T15:58:40;22.70;88.00
7844;DHT22;3967;48.702;9.326;2022-10-16T16:01:06;22.70;88.60
7844;DHT22;3967;48.702;9.326;2022-10-16T16:03:36;22.70;88.20
7844;DHT22;3967;48.702;9.326;2022-10-16T16:06:07;22.80;88.80
7844;DHT22;3967;48.702;9.326;2022-10-16T16:08:34;22.70;88.80
7844;DHT22;3967;48.702;9.326;2022-10-16T16:13:29;22.60;89.40
7844;DHT22;3967;48.702;9.326;2022-10-16T16:15:56;22.60;90.00
7844;DHT22;3967;48.702;9.326;2022-10-16T16:18:23;22.50;90.10
7844;DHT22;3967;48.702;9.326;2022-10-16T16:20:51;22.40;90.40
7844;DHT22;3967;48.702;9.326;2022-10-16T16:23:17;22.30;90.30
7844;DHT22;3967;48.702;9.326;2022-10-16T16:25:53;22.40;90.30
7844;DHT22;3967;48.702;9.326;2022-10-16T16:28:28;22.30;90.50
7844;DHT22;3967;48.702;9.326;2022-10-16T16:30:55;22.20;90.70
7844;DHT22;3967;48.702;9.326;2022-10-16T16:33:21;22.10;91.00
7844;DHT22;3967;48.702;9.326;2022-10-16T16:35:48;22.10;91.00
7844;DHT22;3967;48.702;9.326;2022-10-16T16:38:15;22.00;91.20
7844;DHT22;3967;48.702;9.326;2022-10-16T16:40:42;21.90;91.50
7844;DHT22;3967;48.702;9.326;2022-10-16T16:43:08;21.90;91.60
7844;DHT22;3967;48.702;9.326;2022-10-16T16:45:35;21.80;91.80
7844;DHT22;3967;48.702;9.326;2022-10-16T16:48:02;21.70;92.10
7844;DHT22;3967;48.702;9.326;2022-10-16T16:50:29;21.60;92.40
7844;DHT22;3967;48.702;9.326;2022-10-16T16:52:56;21.60;92.40
7844;DHT22;3967;48.702;9.326;2022-10-16T16:55:22;21.50;92.50
7844;DHT22;3967;48.702;9.326;2022-10-16T16:57:49;21.50;93.10
7844;DHT22;3967;48.702;9.326;2022-10-16T17:00:16;21.40;92.70
7844;DHT22;3967;48.702;9.326;2022-10-16T17:02:43;21.40;92.60
7844;DHT22;3967;48.702;9.326;2022-10-16T17:05:11;21.40;92.60
7844;DHT22;3967;48.702;9.326;2022-10-16T17:07:37;21.40;92.70
7844;DHT22;3967;48.702;9.326;2022-10-16T17:10:07;21.40;92.50
7844;DHT22;3967;48.702;9.326;2022-10-16T17:12:34;21.40;92.80
7844;DHT22;3967;48.702;9.326;2022-10-16T17:15:02;21.30;92.50
7844;DHT22;3967;48.702;9.326;2022-10-16T17:17:29;21.30;92.90
7844;DHT22;3967;48.702;9.326;2022-10-16T17:19:56;21.20;92.90
7844;DHT22;3967;48.702;9.326;2022-10-16T17:22:22;21.20;93.10
7844;DHT22;3967;48.702;9.326;2022-10-16T17:24:51;21.10;93.30
7844;DHT22;3967;48.702;9.326;2022-10-16T17:27:18;21.10;93.40
7844;DHT22;3967;48.702;9.326;2022-10-16T17:29:49;21.10;93.50
7844;DHT22;3967;48.702;9.326;2022-10-16T17:32:15;21.20;93.50
7844;DHT22;3967;48.702;9.326;2022-10-16T17:34:42;21.00;93.70
7844;DHT22;3967;48.702;9.326;2022-10-16T17:37:09;21.10;94.00
7844;DHT22;3967;48.702;9.326;2022-10-16T17:39:42;21.10;94.00
7844;DHT22;3967;48.702;9.326;2022-10-16T17:42:09;21.00;94.20
7844;DHT22;3967;48.702;9.326;2022-10-16T17:44:36;20.90;94.70
7844;DHT22;3967;48.702;9.326;2022-10-16T17:47:03;20.80;95.00
7844;DHT22;3967;48.702;9.326;2022-10-16T17:49:29;20.90;95.30
7844;DHT22;3967;48.702;9.326;2022-10-16T17:51:56;20.80;95.60
7844;DHT22;3967;48.702;9.326;2022-10-16T17:54:24;20.80;95.70
7844;DHT22;3967;48.702;9.326;2022-10-16T17:56:51;20.70;95.90
7844;DHT22;3967;48.702;9.326;2022-10-16T17:59:18;20.60;96.40
7844;DHT22;3967;48.702;9.326;2022-10-16T18:01:48;20.50;96.60
7844;DHT22;3967;48.702;9.326;2022-10-16T18:04:16;20.40;96.80
7844;DHT22;3967;48.702;9.326;2022-10-16T18:06:43;20.40;96.90
7844;DHT22;3967;48.702;9.326;2022-10-16T18:09:13;20.40;97.10
7844;DHT22;3967;48.702;9.326;2022-10-16T18:11:40;20.30;97.20
7844;DHT22;3967;48.702;9.326;2022-10-16T18:14:12;20.20;97.40
7844;DHT22;3967;48.702;9.326;2022-10-16T18:16:41;20.30;97.50
7844;DHT22;3967;48.702;9.326;2022-10-16T18:19:10;20.20;97.70
7844;DHT22;3967;48.702;9.326;2022-10-16T18:21:37;20.10;97.80
7844;DHT22;3967;48.702;9.326;2022-10-16T18:24:05;20.10;98.50
7844;DHT22;3967;48.702;9.326;2022-10-16T18:26:33;20.00;98.30
7844;DHT22;3967;48.702;9.326;2022-10-16T18:29:00;20.00;98.40
7844;DHT22;3967;48.702;9.326;2022-10-16T18:31:28;20.00;98.40
7844;DHT22;3967;48.702;9.326;2022-10-16T18:33:56;19.90;98.60
7844;DHT22;3967;48.702;9.326;2022-10-16T18:36:28;19.80;98.70
7844;DHT22;3967;48.702;9.326;2022-10-16T18:38:56;19.70;98.80